sensor_id;sensor_type;location;lat;lon;timestamp;temperature;humidity
8778;DHT22;4425;50.872;4.712;2023-07-16T03:21:08;15.90;99.90
8778;DHT22;4425;50.872;4.712;2023-07-16T03:23:35;15.90;99.90
8778;DHT22;4425;50.872;4.712;2023-07-16T03:26:03;15.70;99.90
8778;DHT22;4425;50.872;4.712;2023-07-16T03:28:30;15.80;99.90
8778;DHT22;4425;50.872;4.712;2023-07-16T03:30:56;15.80;99.90
8778;DHT22;4425;50.872;4.712;2023-07-16T03:33:23;15.70;99.90
8778;DHT22;4425;50.872;4.712;2023-07-16T03:35:50;15.70;99.90
8778;DHT22;4425;50.872;4.712;2023-07-16T03:38:19;15.70;99.90
8778;DHT22;4425;50.872;4.712;2023-07-16T03:40:48;15.70;99.90
8778;DHT22;4425;50.872;4.712;2023-07-16T03:43:16;15.60;99.90
8778;DHT22;4425;50.872;4.712;2023-07-16T03:45:44;15.60;99.90
8778;DHT22;4425;50.872;4.712;2023-07-16T03:48:11;15.60;99.90
8778;DHT22;4425;50.872;4.712;2023-07-16T03:50:38;15.50;99.90
8778;DHT22;4425;50.872;4.712;2023-07-16T03:53:05;15.60;99.90
8778;DHT22;4425;50.872;4.712;2023-07-16T03:55:35;15.60;99.90
8778;DHT22;4425;50.872;4.712;2023-07-16T03:58:03;15.60;99.90
8778;DHT22;4425;50.872;4.712;2023-07-16T04:00:30;15.60;99.90
8778;DHT22;4425;50.872;4.712;2023-07-16T04:02:58;15.70;99.90
8778;DHT22;4425;50.872;4.712;2023-07-16T04:05:26;15.60;99.90
8778;DHT22;4425;50.872;4.712;2023-07-16T04:07:53;15.60;99.90
8778;DHT22;4425;50.872;4.712;2023-07-16T04:10:21;15.60;99.90
8778;DHT22;4425;50.872;4.712;2023-07-16T04:12:50;15.60;99.90
8778;DHT22;4425;50.872;4.712;2023-07-16T04:15:17;15.60;99.90
8778;DHT22;4425;50.872;4.712;2023-07-16T04:17:45;15.60;99.90
8778;DHT22;4425;50.872;4.712;2023-07-16T04:20:12;15.70;99.90
8778;DHT22;4425;50.872;4.712;2023-07-16T04:22:39;15.80;99.90
8778;DHT22;4425;50.872;4.712;2023-07-16T04:25:07;15.90;99.90
8778;DHT22;4425;50.872;4.712;2023-07-16T04:27:34;15.90;99.90
8778;DHT22;4425;50.872;4.712;2023-07-16T04:30:05;15.90;99.90
8778;DHT22;4425;50.872;4.712;2023-07-16T04:32:32;15.90;99.90
8778;DHT22;4425;50.872;4.712;2023-07-16T04:34:59;15.90;99.90
8778;DHT22;4425;50.872;4.712;2023-07-16T04:37:26;15.90;99.90
8778;DHT22;4425;50.872;4.712;2023-07-16T04:39:53;15.90;99.90
8778;DHT22;4425;50.872;4.712;2023-07-16T04:42:21;15.90;99.90
8778;DHT22;4425;50.872;4.712;2023-07-16T04:44:48;15.90;99.90
8778;DHT22;4425;50.872;4.712;2023-07-16T04:47:17;15.90;99.90
8778;DHT22;4425;50.872;4.712;2023-07-16T04:49:44;16.00;99.90
8778;DHT22;4425;50.872;4.712;2023-07-16T04:52:11;16.10;99.90
8778;DHT22;4425;50.872;4.712;2023-07-16T04:54:38;16.10;99.90
8778;DHT22;4425;50.872;4.712;2023-07-16T04:57:06;16.10;99.90
8778;DHT22;4425;50.872;4.712;2023-07-16T04:59:34;16.20;99.90
8778;DHT22;4425;50.872;4.712;2023-07-16T05:02:04;16.20;99.90
8778;DHT22;4425;50.872;4.712;2023-07-16T05:04:33;16.20;99.90
8778;DHT22;4425;50.872;4.712;2023-07-16T05:07:01;16.20;99.90
8778;DHT22;4425;50.872;4.712;2023-07-16T05:09:29;16.30;99.90
8778;DHT22;4425;50.872;4.712;2023-07-16T05:11:56;16.30;99.90
8778;DHT22;4425;50.872;4.712;2023-07-16T05:14:26;16.30;99.90
8778;DHT22;4425;50.872;4.712;2023-07-16T05:16:54;16.40;99.90
8778;DHT22;4425;50.872;4.712;2023-07-16T05:19:21;16.30;99.90
8778;DHT22;4425;50.872;4.712;2023-07-16T05:21:50;16.40;99.90
8778;DHT22;4425;50.872;4.712;2023-07-16T05:24:17;16.50;99.90
8778;DHT22;4425;50.872;4.712;2023-07-16T05:26:44;16.40;99.90
8778;DHT22;4425;50.872;4.712;2023-07-16T05:29:11;16.50;99.90
8778;DHT22;4425;50.872;4.712;2023-07-16T05:31:38;16.50;99.90
8778;DHT22;4425;50.872;4.712;2023-07-16T05:34:05;16.60;99.90
8778;DHT22;4425;50.872;4.712;2023-07-16T05:36:33;16.70;99.90
8778;DHT22;4425;50.872;4.712;2023-07-16T05:39:01;16.70;99.90
8778;DHT22;4425;50.872;4.712;2023-07-16T05:41:28;16.70;99.90
8778;DHT22;4425;50.872;4.712;2023-07-16T05:43:56;16.80;99.90
8778;DHT22;4425;50.872;4.712;2023-07-16T05:46:23;16.90;99.90
8778;DHT22;4425;50.872;4.712;2023-07-16T05:48:50;16.90;99.90
8778;DHT22;4425;50.872;4.712;2023-07-16T05:51:17;17.00;99.90
8778;DHT22;4425;50.872;4.712;2023-07-16T05:53:44;17.10;99.90
8778;DHT22;4425;50.872;4.712;2023-07-16T05:56:12;17.10;99.90
8778;DHT22;4425;50.872;4.712;2023-07-16T05:58:40;17.20;99.90
8778;DHT22;4425;50.872;4.712;2023-07-16T06:01:07;17.20;99.90
8778;DHT22;4425;50.872;4.712;2023-07-16T06:03:35;17.30;99.90
8778;DHT22;4425;50.872;4.712;2023-07-16T06:06:02;17.40;99.90
8778;DHT22;4425;50.872;4.712;2023-07-16T06:08:29;17.50;99.90
8778;DHT22;4425;50.872;4.712;2023-07-16T06:10:56;17.60;99.90
8778;DHT22;4425;50.872;4.712;2023-07-16T06:13:25;17.60;99.90
8778;DHT22;4425;50.872;4.712;2023-07-16T06:15:52;17.70;99.90
8778;DHT22;4425;50.872;4.712;2023-07-16T06:18:19;18.20;99.90
8778;DHT22;4425;50.872;4.712;2023-07-16T06:20:46;19.50;99.90
8778;DHT22;4425;50.872;4.712;2023-07-16T06:23:14;20.70;99.90
8778;DHT22;4425;50.872;4.712;2023-07-16T06:25:42;21.70;99.90
8778;DHT22;4425;50.872;4.712;2023-07-16T06:28:10;22.40;99.90
8778;DHT22;4425;50.872;4.712;2023-07-16T06:30:39;23.00;99.90
8778;DHT22;4425;50.872;4.712;2023-07-16T06:33:06;23.30;99.90
8778;DHT22;4425;50.872;4.712;2023-07-16T06:35:33;23.60;99.90
8778;DHT22;4425;50.872;4.712;2023-07-16T06:38:01;23.80;99.90
8778;DHT22;4425;50.872;4.712;2023-07-16T06:40:29;24.50;99.90
8778;DHT22;4425;50.872;4.712;2023-07-16T06:42:56;25.10;99.90
8778;DHT22;4425;50.872;4.712;2023-07-16T06:45:23;25.20;99.90
8778;DHT22;4425;50.872;4.712;2023-07-16T06:47:52;25.30;99.90
8778;DHT22;4425;50.872;4.712;2023-07-16T06:50:18;25.80;99.90
8778;DHT22;4425;50.872;4.712;2023-07-16T06:52:46;26.30;99.90
8778;DHT22;4425;50.872;4.712;2023-07-16T06:55:13;26.50;99.90
8778;DHT22;4425;50.872;4.712;2023-07-16T06:57:40;26.60;99.90
8778;DHT22;4425;50.872;4.712;2023-07-16T07:00:08;27.00;99.90
8778;DHT22;4425;50.872;4.712;2023-07-16T07:02:37;27.70;99.90
8778;DHT22;4425;50.872;4.712;2023-07-16T07:05:06;27.90;99.20
8778;DHT22;4425;50.872;4.712;2023-07-16T07:07:33;27.80;99.20
8778;DHT22;4425;50.872;4.712;2023-07-16T07:10:00;27.20;99.80
8778;DHT22;4425;50.872;4.712;2023-07-16T07:12:27;26.90;99.90
8778;DHT22;4425;50.872;4.712;2023-07-16T07:14:54;27.20;99.90
8778;DHT22;4425;50.872;4.712;2023-07-16T07:17:22;27.20;99.90
8778;DHT22;4425;50.872;4.712;2023-07-16T07:19:49;28.00;99.70
8778;DHT22;4425;50.872;4.712;2023-07-16T07:22:17;28.20;98.80
8778;DHT22;4425;50.872;4.712;2023-07-16T07:24:44;27.80;99.00
8778;DHT22;4425;50.872;4.712;2023-07-16T07:27:11;28.00;99.20
8778;DHT22;4425;50.872;4.712;2023-07-16T07:29:38;28.50;98.40
8778;DHT22;4425;50.872;4.712;2023-07-16T07:32:06;27.80;99.10
8778;DHT22;4425;50.872;4.712;2023-07-16T07:34:33;27.30;99.30
8778;DHT22;4425;50.872;4.712;2023-07-16T07:37:00;27.10;99.70
8778;DHT22;4425;50.872;4.712;2023-07-16T07:39:28;27.20;99.70
8778;DHT22;4425;50.872;4.712;2023-07-16T07:41:55;27.90;99.40
8778;DHT22;4425;50.872;4.712;2023-07-16T07:44:22;28.70;98.50
8778;DHT22;4425;50.872;4.712;2023-07-16T07:46:49;28.50;98.20
8778;DHT22;4425;50.872;4.712;2023-07-16T07:49:16;27.70;98.80
8778;DHT22;4425;50.872;4.712;2023-07-16T07:51:43;26.90;99.90
8778;DHT22;4425;50.872;4.712;2023-07-16T07:54:11;27.20;99.70
8778;DHT22;4425;50.872;4.712;2023-07-16T07:56:40;27.80;99.60
8778;DHT22;4425;50.872;4.712;2023-07-16T07:59:07;28.20;98.80
8778;DHT22;4425;50.872;4.712;2023-07-16T08:01:34;28.80;98.10
8778;DHT22;4425;50.872;4.712;2023-07-16T08:04:01;29.00;97.50
8778;DHT22;4425;50.872;4.712;2023-07-16T08:06:28;29.40;97.60
8778;DHT22;4425;50.872;4.712;2023-07-16T08:08:55;29.80;97.10
8778;DHT22;4425;50.872;4.712;2023-07-16T08:11:22;29.80;96.80
8778;DHT22;4425;50.872;4.712;2023-07-16T08:13:51;29.70;96.70
8778;DHT22;4425;50.872;4.712;2023-07-16T08:16:18;28.90;97.10
8778;DHT22;4425;50.872;4.712;2023-07-16T08:18:45;28.30;97.70
8778;DHT22;4425;50.872;4.712;2023-07-16T08:21:12;27.90;98.50
8778;DHT22;4425;50.872;4.712;2023-07-16T08:23:45;28.00;98.40
8778;DHT22;4425;50.872;4.712;2023-07-16T08:26:12;27.70;98.50
8778;DHT22;4425;50.872;4.712;2023-07-16T08:28:39;27.40;98.80
8778;DHT22;4425;50.872;4.712;2023-07-16T08:31:09;27.50;98.70
8778;DHT22;4425;50.872;4.712;2023-07-16T08:33:37;27.90;98.60
8778;DHT22;4425;50.872;4.712;2023-07-16T08:36:04;28.10;97.90
8778;DHT22;4425;50.872;4.712;2023-07-16T08:38:31;28.60;97.80
8778;DHT22;4425;50.872;4.712;2023-07-16T08:40:59;28.60;97.50
8778;DHT22;4425;50.872;4.712;2023-07-16T08:43:28;28.30;97.50
8778;DHT22;4425;50.872;4.712;2023-07-16T08:45:55;28.40;97.70
8778;DHT22;4425;50.872;4.712;2023-07-16T08:48:25;28.40;97.70
8778;DHT22;4425;50.872;4.712;2023-07-16T08:50:55;28.10;97.80
8778;DHT22;4425;50.872;4.712;2023-07-16T08:53:24;27.50;98.20
8778;DHT22;4425;50.872;4.712;2023-07-16T08:55:52;28.10;98.00
8778;DHT22;4425;50.872;4.712;2023-07-16T08:58:23;28.30;97.50
8778;DHT22;4425;50.872;4.712;2023-07-16T09:00:51;28.40;97.50
8778;DHT22;4425;50.872;4.712;2023-07-16T09:03:18;28.30;97.50
8778;DHT22;4425;50.872;4.712;2023-07-16T09:05:48;27.70;98.00
8778;DHT22;4425;50.872;4.712;2023-07-16T09:08:15;27.50;98.60
8778;DHT22;4425;50.872;4.712;2023-07-16T09:10:43;28.20;98.20
8778;DHT22;4425;50.872;4.712;2023-07-16T09:13:10;28.30;97.50
8778;DHT22;4425;50.872;4.712;2023-07-16T09:15:37;28.00;98.30
8778;DHT22;4425;50.872;4.712;2023-07-16T09:18:06;27.90;97.70
8778;DHT22;4425;50.872;4.712;2023-07-16T09:20:36;28.20;97.30
8778;DHT22;4425;50.872;4.712;2023-07-16T09:23:10;27.40;97.90
8778;DHT22;4425;50.872;4.712;2023-07-16T09:25:38;26.50;99.20
8778;DHT22;4425;50.872;4.712;2023-07-16T09:28:06;25.70;99.90
8778;DHT22;4425;50.872;4.712;2023-07-16T09:30:33;24.80;99.90
8778;DHT22;4425;50.872;4.712;2023-07-16T09:33:09;24.30;99.90
8778;DHT22;4425;50.872;4.712;2023-07-16T09:35:37;24.00;99.90
8778;DHT22;4425;50.872;4.712;2023-07-16T09:38:04;23.80;99.90
8778;DHT22;4425;50.872;4.712;2023-07-16T09:40:35;23.80;99.90
8778;DHT22;4425;50.872;4.712;2023-07-16T09:43:03;24.00;99.90
8778;DHT22;4425;50.872;4.712;2023-07-16T09:45:30;24.30;99.90
8778;DHT22;4425;50.872;4.712;2023-07-16T09:47:58;24.00;99.90
8778;DHT22;4425;50.872;4.712;2023-07-16T09:50:27;23.80;99.90
8778;DHT22;4425;50.872;4.712;2023-07-16T09:52:56;23.70;99.90
8778;DHT22;4425;50.872;4.712;2023-07-16T09:55:24;23.60;99.90
8778;DHT22;4425;50.872;4.712;2023-07-16T09:57:56;23.40;99.90
8778;DHT22;4425;50.872;4.712;2023-07-16T10:00:24;23.20;99.90
8778;DHT22;4425;50.872;4.712;2023-07-16T10:02:52;23.10;99.90
8778;DHT22;4425;50.872;4.712;2023-07-16T10:05:24;23.10;99.90
8778;DHT22;4425;50.872;4.712;2023-07-16T10:07:53;23.00;99.90
8778;DHT22;4425;50.872;4.712;2023-07-16T10:10:21;23.10;99.90
8778;DHT22;4425;50.872;4.712;2023-07-16T10:12:57;23.50;99.90
8778;DHT22;4425;50.872;4.712;2023-07-16T10:15:26;23.50;99.90
8778;DHT22;4425;50.872;4.712;2023-07-16T10:17:55;23.50;99.90
8778;DHT22;4425;50.872;4.712;2023-07-16T10:20:32;23.40;99.90
8778;DHT22;4425;50.872;4.712;2023-07-16T10:23:10;23.60;99.90
8778;DHT22;4425;50.872;4.712;2023-07-16T10:25:40;23.90;99.90
8778;DHT22;4425;50.872;4.712;2023-07-16T10:28:09;24.00;99.90
8778;DHT22;4425;50.872;4.712;2023-07-16T10:30:36;24.50;99.90
8778;DHT22;4425;50.872;4.712;2023-07-16T10:33:09;24.90;99.90
8778;DHT22;4425;50.872;4.712;2023-07-16T10:35:41;25.00;99.90
8778;DHT22;4425;50.872;4.712;2023-07-16T10:38:08;24.90;99.90
8778;DHT22;4425;50.872;4.712;2023-07-16T10:40:40;24.70;99.90
8778;DHT22;4425;50.872;4.712;2023-07-16T10:43:08;24.30;99.90
8778;DHT22;4425;50.872;4.712;2023-07-16T10:45:36;24.10;99.90
8778;DHT22;4425;50.872;4.712;2023-07-16T10:48:03;23.90;99.90
8778;DHT22;4425;50.872;4.712;2023-07-16T10:50:32;23.70;99.90
8778;DHT22;4425;50.872;4.712;2023-07-16T10:53:00;23.60;99.90
8778;DHT22;4425;50.872;4.712;2023-07-16T10:55:29;23.50;99.90
8778;DHT22;4425;50.872;4.712;2023-07-16T10:57:58;23.30;99.90
8778;DHT22;4425;50.872;4.712;2023-07-16T11:00:27;23.20;99.90
8778;DHT22;4425;50.872;4.712;2023-07-16T11:02:54;23.30;99.90
8778;DHT22;4425;50.872;4.712;2023-07-16T11:05:21;23.40;99.90
8778;DHT22;4425;50.872;4.712;2023-07-16T11:07:49;23.40;99.90
8778;DHT22;4425;50.872;4.712;2023-07-16T11:10:16;23.20;99.90
8778;DHT22;4425;50.872;4.712;2023-07-16T11:12:44;23.10;99.90
8778;DHT22;4425;50.872;4.712;2023-07-16T11:15:11;23.20;99.90
8778;DHT22;4425;50.872;4.712;2023-07-16T11:17:40;23.30;99.90
8778;DHT22;4425;50.872;4.712;2023-07-16T11:20:08;23.50;99.90
8778;DHT22;4425;50.872;4.712;2023-07-16T11:22:37;23.60;99.90
8778;DHT22;4425;50.872;4.712;2023-07-16T11:25:11;23.70;99.90
8778;DHT22;4425;50.872;4.712;2023-07-16T11:27:41;23.70;99.90
8778;DHT22;4425;50.872;4.712;2023-07-16T11:30:09;23.80;99.90
8778;DHT22;4425;50.872;4.712;2023-07-16T11:32:46;24.00;99.90
8778;DHT22;4425;50.872;4.712;2023-07-16T11:35:16;24.10;99.90
8778;DHT22;4425;50.872;4.712;2023-07-16T11:37:44;24.30;99.90
8778;DHT22;4425;50.872;4.712;2023-07-16T11:40:19;24.20;99.90
8778;DHT22;4425;50.872;4.712;2023-07-16T11:42:46;24.10;99.90
8778;DHT22;4425;50.872;4.712;2023-07-16T11:45:18;24.00;99.90
8778;DHT22;4425;50.872;4.712;2023-07-16T11:47:49;24.20;99.90
8778;DHT22;4425;50.872;4.712;2023-07-16T11:50:16;24.40;99.90
8778;DHT22;4425;50.872;4.712;2023-07-16T11:52:52;24.30;99.90
8778;DHT22;4425;50.872;4.712;2023-07-16T11:55:19;24.30;99.90
8778;DHT22;4425;50.872;4.712;2023-07-16T11:57:46;24.20;99.90
8778;DHT22;4425;50.872;4.712;2023-07-16T12:00:14;24.30;99.90
8778;DHT22;4425;50.872;4.712;2023-07-16T12:02:43;24.50;99.90
8778;DHT22;4425;50.872;4.712;2023-07-16T12:05:18;24.60;99.90
8778;DHT22;4425;50.872;4.712;2023-07-16T12:07:45;24.80;99.90
8778;DHT22;4425;50.872;4.712;2023-07-16T12:10:13;24.90;99.90
8778;DHT22;4425;50.872;4.712;2023-07-16T12:12:40;24.60;99.90
8778;DHT22;4425;50.872;4.712;2023-07-16T12:15:08;24.50;99.90
8778;DHT22;4425;50.872;4.712;2023-07-16T12:17:36;24.50;99.90
8778;DHT22;4425;50.872;4.712;2023-07-16T12:20:03;24.30;99.90
8778;DHT22;4425;50.872;4.712;2023-07-16T12:22:33;24.40;99.90
8778;DHT22;4425;50.872;4.712;2023-07-16T12:25:02;24.10;99.90
8778;DHT22;4425;50.872;4.712;2023-07-16T12:27:29;24.00;99.90
8778;DHT22;4425;50.872;4.712;2023-07-16T12:29:56;24.10;99.90
8778;DHT22;4425;50.872;4.712;2023-07-16T12:32:24;24.20;99.90
8778;DHT22;4425;50.872;4.712;2023-07-16T12:34:52;24.30;99.90
8778;DHT22;4425;50.872;4.712;2023-07-16T12:37:20;24.70;99.90
8778;DHT22;4425;50.872;4.712;2023-07-16T12:39:50;24.90;99.90
8778;DHT22;4425;50.872;4.712;2023-07-16T12:42:17;25.10;99.90
8778;DHT22;4425;50.872;4.712;2023-07-16T12:44:44;25.20;99.90
8778;DHT22;4425;50.872;4.712;2023-07-16T12:47:15;25.10;99.90
8778;DHT22;4425;50.872;4.712;2023-07-16T12:49:42;25.00;99.90
8778;DHT22;4425;50.872;4.712;2023-07-16T12:52:09;25.20;99.90
8778;DHT22;4425;50.872;4.712;2023-07-16T12:54:38;25.60;99.90
8778;DHT22;4425;50.872;4.712;2023-07-16T12:57:32;25.80;99.90
8778;DHT22;4425;50.872;4.712;2023-07-16T12:59:59;26.00;99.90
8778;DHT22;4425;50.872;4.712;2023-07-16T13:02:31;25.80;99.90
8778;DHT22;4425;50.872;4.712;2023-07-16T13:05:03;25.60;99.90
8778;DHT22;4425;50.872;4.712;2023-07-16T13:07:31;25.40;99.90
8778;DHT22;4425;50.872;4.712;2023-07-16T13:09:58;25.20;99.90
8778;DHT22;4425;50.872;4.712;2023-07-16T13:12:27;25.20;99.90
8778;DHT22;4425;50.872;4.712;2023-07-16T13:14:54;25.40;99.90
8778;DHT22;4425;50.872;4.712;2023-07-16T13:17:22;25.50;99.90
8778;DHT22;4425;50.872;4.712;2023-07-16T13:19:49;25.50;99.90
8778;DHT22;4425;50.872;4.712;2023-07-16T13:22:16;25.50;99.90
8778;DHT22;4425;50.872;4.712;2023-07-16T13:24:43;25.50;99.90
8778;DHT22;4425;50.872;4.712;2023-07-16T13:27:19;25.70;99.90
8778;DHT22;4425;50.872;4.712;2023-07-16T13:29:49;25.60;99.90
8778;DHT22;4425;50.872;4.712;2023-07-16T13:32:16;25.60;99.90
8778;DHT22;4425;50.872;4.712;2023-07-16T13:34:43;25.70;99.90
8778;DHT22;4425;50.872;4.712;2023-07-16T13:37:10;25.90;99.90
8778;DHT22;4425;50.872;4.712;2023-07-16T13:39:39;26.10;99.90
8778;DHT22;4425;50.872;4.712;2023-07-16T13:42:06;26.00;99.90
8778;DHT22;4425;50.872;4.712;2023-07-16T13:44:36;26.10;99.90
8778;DHT22;4425;50.872;4.712;2023-07-16T13:47:05;26.10;99.90
8778;DHT22;4425;50.872;4.712;2023-07-16T13:49:32;26.10;99.40
8778;DHT22;4425;50.872;4.712;2023-07-16T13:52:00;25.90;99.80
8778;DHT22;4425;50.872;4.712;2023-07-16T13:54:27;25.80;99.90
8778;DHT22;4425;50.872;4.712;2023-07-16T13:56:54;25.50;99.90
8778;DHT22;4425;50.872;4.712;2023-07-16T13:59:22;25.50;99.90
8778;DHT22;4425;50.872;4.712;2023-07-16T14:01:58;25.40;99.90
8778;DHT22;4425;50.872;4.712;2023-07-16T14:04:28;25.40;99.90
8778;DHT22;4425;50.872;4.712;2023-07-16T14:06:55;25.20;99.90
8778;DHT22;4425;50.872;4.712;2023-07-16T14:09:23;25.00;99.90
8778;DHT22;4425;50.872;4.712;2023-07-16T14:11:52;24.90;99.90
8778;DHT22;4425;50.872;4.712;2023-07-16T14:14:33;24.80;99.90
8778;DHT22;4425;50.872;4.712;2023-07-16T14:17:00;24.30;99.90
8778;DHT22;4425;50.872;4.712;2023-07-16T14:19:35;24.30;99.90
8778;DHT22;4425;50.872;4.712;2023-07-16T14:22:02;24.40;99.90
8778;DHT22;4425;50.872;4.712;2023-07-16T14:24:43;24.40;99.90
8778;DHT22;4425;50.872;4.712;2023-07-16T14:27:16;24.50;99.90
8778;DHT22;4425;50.872;4.712;2023-07-16T14:29:45;24.60;99.90
8778;DHT22;4425;50.872;4.712;2023-07-16T14:32:13;24.70;99.90
8778;DHT22;4425;50.872;4.712;2023-07-16T14:34:42;24.70;99.90
8778;DHT22;4425;50.872;4.712;2023-07-16T14:37:10;24.60;99.90
8778;DHT22;4425;50.872;4.712;2023-07-16T14:39:38;24.60;99.90
8778;DHT22;4425;50.872;4.712;2023-07-16T14:42:06;24.50;99.90
8778;DHT22;4425;50.872;4.712;2023-07-16T14:44:40;24.50;99.90
8778;DHT22;4425;50.872;4.712;2023-07-16T14:47:19;24.60;99.90
8778;DHT22;4425;50.872;4.712;2023-07-16T14:49:59;24.60;99.90
8778;DHT22;4425;50.872;4.712;2023-07-16T14:52:27;24.70;99.90
8778;DHT22;4425;50.872;4.712;2023-07-16T14:54:55;24.70;99.90
8778;DHT22;4425;50.872;4.712;2023-07-16T14:57:22;24.90;99.90
8778;DHT22;4425;50.872;4.712;2023-07-16T14:59:50;25.10;99.90
8778;DHT22;4425;50.872;4.712;2023-07-16T15:02:18;25.10;99.90
8778;DHT22;4425;50.872;4.712;2023-07-16T15:04:45;25.20;99.90
8778;DHT22;4425;50.872;4.712;2023-07-16T15:07:32;25.40;99.90
8778;DHT22;4425;50.872;4.712;2023-07-16T15:10:00;25.40;99.90
8778;DHT22;4425;50.872;4.712;2023-07-16T15:12:27;25.20;99.90
8778;DHT22;4425;50.872;4.712;2023-07-16T15:14:54;25.20;99.90
8778;DHT22;4425;50.872;4.712;2023-07-16T15:17:21;25.10;99.90
8778;DHT22;4425;50.872;4.712;2023-07-16T15:19:48;24.80;99.90
8778;DHT22;4425;50.872;4.712;2023-07-16T15:22:15;24.80;99.90
8778;DHT22;4425;50.872;4.712;2023-07-16T15:24:45;25.00;99.90
8778;DHT22;4425;50.872;4.712;2023-07-16T15:27:12;25.00;99.90
8778;DHT22;4425;50.872;4.712;2023-07-16T15:29:39;25.00;99.90
8778;DHT22;4425;50.872;4.712;2023-07-16T15:32:07;24.90;99.90
8778;DHT22;4425;50.872;4.712;2023-07-16T15:34:34;24.90;99.90
8778;DHT22;4425;50.872;4.712;2023-07-16T15:37:00;25.00;99.90
8778;DHT22;4425;50.872;4.712;2023-07-16T15:39:28;24.80;99.90
8778;DHT22;4425;50.872;4.712;2023-07-16T15:41:56;24.60;99.90
8778;DHT22;4425;50.872;4.712;2023-07-16T15:44:23;24.40;99.90
8778;DHT22;4425;50.872;4.712;2023-07-16T15:46:50;24.20;99.90
8778;DHT22;4425;50.872;4.712;2023-07-16T15:49:16;23.90;99.90
8778;DHT22;4425;50.872;4.712;2023-07-16T15:51:44;23.50;99.90
8778;DHT22;4425;50.872;4.712;2023-07-16T15:54:11;23.00;99.90
8778;DHT22;4425;50.872;4.712;2023-07-16T15:56:38;22.40;99.90
8778;DHT22;4425;50.872;4.712;2023-07-16T15:59:07;21.90;99.90
8778;DHT22;4425;50.872;4.712;2023-07-16T16:01:33;21.70;99.90
8778;DHT22;4425;50.872;4.712;2023-07-16T16:04:00;21.60;99.90
8778;DHT22;4425;50.872;4.712;2023-07-16T16:06:28;21.50;99.90
8778;DHT22;4425;50.872;4.712;2023-07-16T16:08:55;21.40;99.90
8778;DHT22;4425;50.872;4.712;2023-07-16T16:11:21;21.20;99.90
8778;DHT22;4425;50.872;4.712;2023-07-16T16:13:49;21.40;99.90
8778;DHT22;4425;50.872;4.712;2023-07-16T16:16:18;21.40;99.90
8778;DHT22;4425;50.872;4.712;2023-07-16T16:18:46;21.50;99.90
8778;DHT22;4425;50.872;4.712;2023-07-16T16:21:13;21.50;99.90
8778;DHT22;4425;50.872;4.712;2023-07-16T16:23:39;21.60;99.90
8778;DHT22;4425;50.872;4.712;2023-07-16T16:26:06;21.80;99.90
8778;DHT22;4425;50.872;4.712;2023-07-16T16:28:33;22.20;99.90
8778;DHT22;4425;50.872;4.712;2023-07-16T16:31:04;22.50;99.90
8778;DHT22;4425;50.872;4.712;2023-07-16T16:33:32;22.50;99.90
8778;DHT22;4425;50.872;4.712;2023-07-16T16:35:59;22.50;99.90
8778;DHT22;4425;50.872;4.712;2023-07-16T16:38:26;22.40;99.90
8778;DHT22;4425;50.872;4.712;2023-07-16T16:40:53;22.40;99.90
8778;DHT22;4425;50.872;4.712;2023-07-16T16:43:20;22.20;99.90
8778;DHT22;4425;50.872;4.712;2023-07-16T16:45:47;22.10;99.90
8778;DHT22;4425;50.872;4.712;2023-07-16T16:48:15;22.00;99.90
8778;DHT22;4425;50.872;4.712;2023-07-16T16:50:43;21.90;99.90
8778;DHT22;4425;50.872;4.712;2023-07-16T16:53:10;21.90;99.90
8778;DHT22;4425;50.872;4.712;2023-07-16T16:55:37;21.80;99.90
8778;DHT22;4425;50.872;4.712;2023-07-16T16:58:04;21.70;99.90
8778;DHT22;4425;50.872;4.712;2023-07-16T17:00:31;21.60;99.90
8778;DHT22;4425;50.872;4.712;2023-07-16T17:02:58;21.60;99.90
8778;DHT22;4425;50.872;4.712;2023-07-16T17:05:25;21.50;99.90
8778;DHT22;4425;50.872;4.712;2023-07-16T17:07:53;21.20;99.90
8778;DHT22;4425;50.872;4.712;2023-07-16T17:10:23;21.00;99.90
8778;DHT22;4425;50.872;4.712;2023-07-16T17:12:50;20.80;99.90
8778;DHT22;4425;50.872;4.712;2023-07-16T17:15:19;20.60;99.90
8778;DHT22;4425;50.872;4.712;2023-07-16T17:17:46;20.60;99.90
8778;DHT22;4425;50.872;4.712;2023-07-16T17:20:14;20.60;99.90
8778;DHT22;4425;50.872;4.712;2023-07-16T17:22:41;20.60;99.90
8778;DHT22;4425;50.872;4.712;2023-07-16T17:25:09;20.40;99.90
8778;DHT22;4425;50.872;4.712;2023-07-16T17:27:38;20.30;99.90
8778;DHT22;4425;50.872;4.712;2023-07-16T17:30:06;20.20;99.90
8778;DHT22;4425;50.872;4.712;2023-07-16T17:32:34;20.10;99.90
8778;DHT22;4425;50.872;4.712;2023-07-16T17:35:04;20.10;99.90
8778;DHT22;4425;50.872;4.712;2023-07-16T17:37:31;20.10;99.90
8778;DHT22;4425;50.872;4.712;2023-07-16T17:39:59;20.10;99.90
8778;DHT22;4425;50.872;4.712;2023-07-16T17:42:27;20.00;99.90
8778;DHT22;4425;50.872;4.712;2023-07-16T17:44:54;20.00;99.90
8778;DHT22;4425;50.872;4.712;2023-07-16T17:47:21;20.00;99.90
8778;DHT22;4425;50.872;4.712;2023-07-16T17:49:48;20.00;99.90
8778;DHT22;4425;50.872;4.712;2023-07-16T17:52:15;20.10;99.90
8778;DHT22;4425;50.872;4.712;2023-07-16T17:54:42;20.10;99.90
8778;DHT22;4425;50.872;4.712;2023-07-16T17:57:10;20.10;99.90
8778;DHT22;4425;50.872;4.712;2023-07-16T17:59:39;20.10;99.90
8778;DHT22;4425;50.872;4.712;2023-07-16T18:02:06;20.10;99.90
8778;DHT22;4425;50.872;4.712;2023-07-16T18:04:35;20.10;99.90
8778;DHT22;4425;50.872;4.712;2023-07-16T18:07:02;20.10;99.90
8778;DHT22;4425;50.872;4.712;2023-07-16T18:09:29;20.10;99.90
8778;DHT22;4425;50.872;4.712;2023-07-16T18:11:56;20.10;99.90
8778;DHT22;4425;50.872;4.712;2023-07-16T18:14:23;20.10;99.90
8778;DHT22;4425;50.872;4.712;2023-07-16T18:16:51;20.10;99.90
8778;DHT22;4425;50.872;4.712;2023-07-16T18:19:18;20.10;99.90
8778;DHT22;4425;50.872;4.712;2023-07-16T18:21:45;20.00;99.90
8778;DHT22;4425;50.872;4.712;2023-07-16T18:24:13;20.00;99.90
8778;DHT22;4425;50.872;4.712;2023-07-16T18:26:40;20.00;99.90
8778;DHT22;4425;50.872;4.712;2023-07-16T18:29:07;19.90;99.90
8778;DHT22;4425;50.872;4.712;2023-07-16T18:31:34;19.90;99.90
8778;DHT22;4425;50.872;4.712;2023-07-16T18:34:02;19.90;99.90
8778;DHT22;4425;50.872;4.712;2023-07-16T18:36:30;19.80;99.90
8778;DHT22;4425;50.872;4.712;2023-07-16T18:38:57;19.80;99.90
8778;DHT22;4425;50.872;4.712;2023-07-16T18:41:24;19.80;99.90
8778;DHT22;4425;50.872;4.712;2023-07-16T18:43:51;19.80;99.90
8778;DHT22;4425;50.872;4.712;2023-07-16T18:46:18;19.80;99.90
8778;DHT22;4425;50.872;4.712;2023-07-16T18:48:45;19.80;99.90
8778;DHT22;4425;50.872;4.712;2023-07-16T18:51:13;19.80;99.90
8778;DHT22;4425;50.872;4.712;2023-07-16T18:53:40;19.70;99.90
8778;DHT22;4425;50.872;4.712;2023-07-16T18:56:06;19.70;99.90
8778;DHT22;4425;50.872;4.712;2023-07-16T18:58:33;19.70;99.90
8778;DHT22;4425;50.872;4.712;2023-07-16T19:01:01;19.60;99.90
8778;DHT22;4425;50.872;4.712;2023-07-16T19:03:28;19.70;99.90
8778;DHT22;4425;50.872;4.712;2023-07-16T19:05:55;19.60;99.90
8778;DHT22;4425;50.872;4.712;2023-07-16T19:08:25;19.60;99.90
8778;DHT22;4425;50.872;4.712;2023-07-16T19:10:52;19.70;99.90
8778;DHT22;4425;50.872;4.712;2023-07-16T19:13:19;19.60;99.90
8778;DHT22;4425;50.872;4.712;2023-07-16T19:15:47;19.60;99.90
8778;DHT22;4425;50.872;4.712;2023-07-16T19:18:16;19.60;99.90
8778;DHT22;4425;50.872;4.712;2023-07-16T19:20:43;19.60;99.90
8778;DHT22;4425;50.872;4.712;2023-07-16T19:23:11;19.50;99.90
8778;DHT22;4425;50.872;4.712;2023-07-16T19:25:39;19.50;99.90
8778;DHT22;4425;50.872;4.712;2023-07-16T19:28:06;19.40;99.90